createdAt,value
2022-10-24T00:00:25.153Z,11.17
2022-10-24T00:03:12.055Z,11.27
2022-10-24T00:05:58.528Z,8.83
2022-10-24T00:08:45.071Z,14.40
2022-10-24T00:11:30.816Z,9.70
2022-10-24T00:14:16.738Z,11.57
2022-10-24T00:17:02.701Z,10.83
2022-10-24T00:19:48.327Z,12.93
2022-10-24T00:22:34.213Z,12.20
2022-10-24T00:25:20.548Z,10.37
2022-10-24T00:28:06.464Z,10.80
2022-10-24T00:30:53.256Z,11.60
2022-10-24T00:33:39.315Z,9.93
2022-10-24T00:36:25.284Z,15.03
2022-10-24T00:39:12.823Z,11.80
2022-10-24T00:42:01.380Z,11.73
2022-10-24T00:44:47.747Z,13.37
2022-10-24T00:47:33.728Z,12.00
2022-10-24T00:50:19.553Z,12.80
2022-10-24T00:53:05.380Z,12.53
2022-10-24T00:55:52.977Z,11.00
2022-10-24T00:58:39.654Z,11.70
2022-10-24T01:01:26.406Z,11.50
2022-10-24T01:04:13.393Z,10.57
2022-10-24T01:07:15.165Z,9.60
2022-10-24T01:10:08.425Z,9.80
2022-10-24T01:13:20.161Z,11.10
2022-10-24T01:16:14.179Z,9.70
2022-10-24T01:19:23.481Z,10.03
2022-10-24T01:22:22.066Z,9.97
2022-10-24T01:25:16.082Z,9.40
2022-10-24T01:28:05.287Z,10.57
2022-10-24T01:31:02.165Z,11.80
2022-10-24T01:33:52.813Z,8.53
2022-10-24T01:36:43.761Z,8.70
2022-10-24T01:39:34.947Z,7.50
2022-10-24T01:42:22.524Z,13.43
2022-10-24T01:45:09.949Z,8.90
2022-10-24T01:47:57.273Z,11.67
2022-10-24T01:50:43.953Z,15.10
2022-10-24T01:53:31.198Z,9.60
2022-10-24T01:56:17.457Z,10.30
2022-10-24T01:59:29.618Z,12.47
2022-10-24T02:02:24.343Z,8.17
2022-10-24T02:05:22.528Z,10.63
2022-10-24T02:08:13.175Z,8.90
2022-10-24T02:11:01.441Z,15.67
2022-10-24T02:13:52.074Z,8.63
2022-10-24T02:16:38.075Z,8.57
2022-10-24T02:19:25.197Z,8.93
2022-10-24T02:22:31.165Z,15.60
2022-10-24T02:25:20.182Z,8.77
2022-10-24T02:28:11.932Z,8.83
2022-10-24T02:31:03.413Z,8.50
2022-10-24T02:33:50.255Z,12.93
2022-10-24T02:36:36.948Z,8.83
2022-10-24T02:39:23.832Z,9.63
2022-10-24T02:42:10.517Z,11.50
2022-10-24T02:44:56.682Z,9.03
2022-10-24T02:47:44.244Z,14.37
2022-10-24T02:50:31.181Z,11.63
2022-10-24T02:53:20.055Z,11.60
2022-10-24T02:56:05.814Z,13.03
2022-10-24T02:58:51.592Z,8.20
2022-10-24T03:01:37.247Z,13.87
2022-10-24T03:04:23.163Z,11.10
2022-10-24T03:07:08.976Z,8.37
2022-10-24T03:09:54.736Z,11.00
2022-10-24T03:12:40.574Z,9.90
2022-10-24T03:15:26.037Z,13.17
2022-10-24T03:18:12.922Z,9.57
2022-10-24T03:20:59.209Z,9.50
2022-10-24T03:23:44.819Z,11.27
2022-10-24T03:26:30.825Z,8.57
2022-10-24T03:29:16.525Z,12.73
2022-10-24T03:32:02.287Z,11.93
2022-10-24T03:34:48.356Z,9.80
2022-10-24T03:37:34.067Z,9.37
2022-10-24T03:40:20.014Z,11.03
2022-10-24T03:43:05.839Z,12.60
2022-10-24T03:45:52.301Z,10.73
2022-10-24T03:48:38.705Z,8.30
2022-10-24T03:51:24.701Z,8.27
2022-10-24T03:54:11.751Z,11.40
2022-10-24T03:56:57.877Z,19.80
2022-10-24T03:59:43.620Z,8.33
2022-10-24T04:02:29.507Z,10.30
2022-10-24T04:05:15.652Z,13.40
2022-10-24T04:08:01.445Z,9.57
2022-10-24T04:10:49.059Z,12.43
2022-10-24T04:13:35.002Z,19.73
2022-10-24T04:16:21.101Z,13.37
2022-10-24T04:19:07.101Z,10.50
2022-10-24T04:21:52.993Z,10.10
2022-10-24T04:24:39.338Z,10.00
2022-10-24T04:27:26.769Z,13.63
2022-10-24T04:30:16.779Z,15.40
2022-10-24T04:33:03.004Z,10.13
2022-10-24T04:35:49.690Z,10.50
2022-10-24T04:38:36.578Z,10.50
2022-10-24T04:41:22.776Z,12.33
2022-10-24T04:44:08.337Z,11.53
2022-10-24T04:46:54.152Z,13.50
2022-10-24T04:49:40.543Z,13.03
2022-10-24T04:52:26.509Z,12.53
2022-10-24T04:55:12.724Z,10.27
2022-10-24T04:57:58.872Z,12.23
2022-10-24T05:00:48.532Z,8.73
2022-10-24T05:03:34.216Z,10.90
2022-10-24T05:06:20.114Z,11.03
2022-10-24T05:09:06.430Z,8.80
2022-10-24T05:11:52.186Z,13.80
2022-10-24T05:14:38.320Z,14.20
2022-10-24T05:17:25.004Z,16.07
2022-10-24T05:20:10.980Z,11.73
2022-10-24T05:22:57.239Z,9.90
2022-10-24T05:25:43.670Z,14.50
2022-10-24T05:28:29.967Z,10.80
2022-10-24T05:31:15.653Z,14.40
2022-10-24T05:34:01.551Z,14.80
2022-10-24T05:36:47.233Z,18.50
2022-10-24T05:39:32.915Z,11.80
2022-10-24T05:42:19.143Z,13.07
2022-10-24T05:45:06.266Z,11.47
2022-10-24T05:47:52.035Z,15.17
2022-10-24T05:50:37.623Z,15.77
2022-10-24T05:53:23.450Z,17.63
2022-10-24T05:56:10.267Z,11.53
2022-10-24T05:58:57.040Z,12.17
2022-10-24T06:01:42.995Z,14.33
2022-10-24T06:04:28.947Z,16.73
2022-10-24T06:07:14.944Z,14.13
2022-10-24T06:10:01.238Z,12.17
2022-10-24T06:12:47.536Z,11.10
2022-10-24T06:15:33.669Z,12.20
2022-10-24T06:18:20.139Z,12.80
2022-10-24T06:21:07.398Z,23.17
2022-10-24T06:23:53.763Z,14.90
2022-10-24T06:26:39.671Z,15.60
2022-10-24T06:29:25.357Z,18.77
2022-10-24T06:32:11.717Z,19.17
2022-10-24T06:34:57.605Z,17.00
2022-10-24T06:37:48.100Z,15.47
2022-10-24T06:40:34.529Z,18.50
2022-10-24T06:43:21.186Z,21.57
2022-10-24T06:46:08.085Z,17.03
2022-10-24T06:48:55.677Z,18.77
2022-10-24T06:51:42.182Z,19.53
2022-10-24T06:54:30.206Z,18.13
2022-10-24T06:57:18.204Z,14.40
2022-10-24T07:00:04.871Z,17.93
2022-10-24T07:02:50.706Z,10.70
2022-10-24T07:05:37.722Z,16.50
2022-10-24T07:08:23.586Z,16.20
2022-10-24T07:11:09.183Z,10.70
2022-10-24T07:13:58.251Z,24.63
2022-10-24T07:16:47.490Z,19.47
2022-10-24T07:19:37.224Z,16.47
2022-10-24T07:22:23.848Z,22.33
2022-10-24T07:25:09.736Z,18.67
2022-10-24T07:27:55.697Z,19.00
2022-10-24T07:30:44.362Z,22.47
2022-10-24T07:33:29.948Z,19.33
2022-10-24T07:36:17.854Z,15.90
2022-10-24T07:39:03.760Z,23.47
2022-10-24T07:41:49.572Z,19.23
2022-10-24T07:44:35.361Z,24.07
2022-10-24T07:47:21.094Z,19.67
2022-10-24T07:50:07.112Z,21.93
2022-10-24T07:52:52.784Z,14.67
2022-10-24T07:55:39.202Z,13.00
2022-10-24T07:58:25.008Z,13.70
2022-10-24T08:01:12.683Z,15.57
2022-10-24T08:03:58.383Z,11.07
2022-10-24T08:06:44.715Z,19.33
2022-10-24T08:09:30.522Z,11.50
2022-10-24T08:12:16.481Z,13.33
2022-10-24T08:15:02.660Z,12.90
2022-10-24T08:17:48.456Z,15.40
2022-10-24T08:20:34.460Z,15.53
2022-10-24T08:23:24.564Z,11.93
2022-10-24T08:26:13.040Z,12.10
2022-10-24T08:28:58.749Z,9.30
2022-10-24T08:31:44.463Z,10.47
2022-10-24T08:34:30.393Z,13.13
2022-10-24T08:37:16.199Z,10.70
2022-10-24T08:40:04.827Z,10.23
2022-10-24T08:42:50.705Z,13.00
2022-10-24T08:45:39.120Z,16.87
2022-10-24T08:48:29.367Z,12.23
2022-10-24T08:51:27.410Z,13.43
2022-10-24T08:54:24.056Z,18.50
2022-10-24T08:57:18.088Z,16.30
2022-10-24T09:00:08.823Z,7.83
2022-10-24T09:03:06.261Z,16.10
2022-10-24T09:05:54.707Z,21.67
2022-10-24T09:08:52.584Z,18.90
2022-10-24T09:11:56.015Z,12.27
2022-10-24T09:14:42.874Z,13.07
2022-10-24T09:17:33.193Z,13.50
2022-10-24T09:20:27.471Z,16.20
2022-10-24T09:23:13.354Z,13.33
2022-10-24T09:25:59.429Z,7.63
2022-10-24T09:28:45.328Z,11.30
2022-10-24T09:31:31.252Z,8.30
2022-10-24T09:34:18.717Z,18.50
2022-10-24T09:37:04.424Z,16.10
2022-10-24T09:40:05.007Z,10.77
2022-10-24T09:42:53.181Z,18.87
2022-10-24T09:45:41.772Z,13.80
2022-10-24T09:48:32.373Z,11.23
2022-10-24T09:51:27.350Z,9.20
2022-10-24T09:54:19.240Z,7.77
2022-10-24T09:57:11.018Z,10.53
2022-10-24T10:00:00.643Z,10.13
2022-10-24T10:02:57.129Z,8.53
2022-10-24T10:05:48.870Z,10.13
2022-10-24T10:08:35.847Z,10.60
2022-10-24T10:11:26.643Z,7.80
2022-10-24T10:14:23.857Z,14.57
2022-10-24T10:17:19.067Z,8.50
2022-10-24T10:20:05.083Z,14.07
2022-10-24T10:22:51.598Z,11.03
2022-10-24T10:25:38.909Z,9.27
2022-10-24T10:28:25.405Z,9.13
2022-10-24T10:31:11.430Z,11.93
2022-10-24T10:34:21.828Z,12.17
2022-10-24T10:37:23.144Z,6.57
2022-10-24T10:40:15.415Z,10.07
2022-10-24T10:43:04.227Z,7.20
2022-10-24T10:46:08.931Z,7.70
2022-10-24T10:48:54.826Z,13.10
2022-10-24T10:51:42.675Z,8.43
2022-10-24T10:54:40.575Z,10.73
2022-10-24T10:57:33.160Z,20.83
2022-10-24T11:00:25.968Z,10.67
2022-10-24T11:03:24.911Z,7.67
2022-10-24T11:06:10.423Z,4.53
2022-10-24T11:09:15.317Z,12.20
2022-10-24T11:12:13.149Z,7.30
2022-10-24T11:15:05.738Z,8.13
2022-10-24T11:17:55.392Z,5.53
2022-10-24T11:20:43.869Z,7.43
2022-10-24T11:23:40.319Z,7.77
2022-10-24T11:26:33.974Z,9.40
2022-10-24T11:29:24.856Z,8.27
2022-10-24T11:32:24.283Z,7.17
2022-10-24T11:35:26.441Z,5.07
2022-10-24T11:38:21.410Z,6.50
2022-10-24T11:41:20.485Z,8.13
2022-10-24T11:44:42.135Z,8.07
2022-10-24T11:47:28.860Z,8.23
2022-10-24T11:50:19.626Z,5.10
2022-10-24T11:53:13.776Z,6.23
2022-10-24T11:56:11.972Z,10.23
2022-10-24T11:59:08.160Z,8.47
2022-10-24T12:02:03.245Z,6.40
2022-10-24T12:05:05.718Z,9.40
2022-10-24T12:08:11.064Z,7.90
2022-10-24T12:11:10.701Z,4.57
2022-10-24T12:14:18.939Z,7.97
2022-10-24T12:17:23.359Z,5.37
2022-10-24T12:20:14.108Z,7.57
2022-10-24T12:23:01.622Z,9.20
2022-10-24T12:25:48.770Z,4.67
2022-10-24T12:28:34.883Z,4.90
2022-10-24T12:31:25.415Z,8.20
2022-10-24T12:34:22.829Z,6.40
2022-10-24T12:37:12.100Z,5.27
2022-10-24T12:39:58.739Z,3.73
2022-10-24T12:42:45.050Z,7.57
2022-10-24T12:45:32.816Z,3.83
2022-10-24T12:48:29.195Z,4.97
2022-10-24T12:51:34.054Z,3.93
2022-10-24T12:54:38.649Z,2.93
2022-10-24T12:57:25.849Z,4.70
2022-10-24T13:00:25.224Z,8.17
2022-10-24T13:03:22.659Z,3.47
2022-10-24T13:06:23.497Z,4.37
2022-10-24T13:09:28.903Z,5.00
2022-10-24T13:12:17.528Z,4.73
2022-10-24T13:15:09.343Z,5.67
2022-10-24T13:18:05.297Z,3.30
2022-10-24T13:21:06.514Z,4.20
2022-10-24T13:23:52.277Z,6.00
2022-10-24T13:26:39.627Z,5.20
2022-10-24T13:29:25.134Z,7.17
2022-10-24T13:32:10.914Z,3.67
2022-10-24T13:34:59.517Z,8.07
2022-10-24T13:37:47.017Z,7.63
2022-10-24T13:40:34.038Z,7.40
2022-10-24T13:43:20.282Z,5.70
2022-10-24T13:46:13.096Z,6.33
2022-10-24T13:49:00.454Z,6.17
2022-10-24T13:51:52.008Z,3.00
2022-10-24T13:54:38.826Z,5.67
2022-10-24T13:57:30.339Z,6.43
2022-10-24T14:00:20.556Z,3.23
2022-10-24T14:03:12.763Z,7.27
2022-10-24T14:06:03.557Z,3.10
2022-10-24T14:08:59.976Z,3.50
2022-10-24T14:11:51.877Z,4.03
2022-10-24T14:14:39.902Z,7.03
2022-10-24T14:17:30.665Z,5.07
2022-10-24T14:20:21.363Z,2.90
2022-10-24T14:23:26.027Z,4.20
2022-10-24T14:26:11.573Z,3.80
2022-10-24T14:29:00.987Z,4.83
2022-10-24T14:31:54.361Z,4.00
2022-10-24T14:34:40.307Z,4.50
2022-10-24T14:37:31.122Z,2.10
2022-10-24T14:40:18.034Z,2.27
2022-10-24T14:43:03.887Z,7.53
2022-10-24T14:46:08.131Z,2.57
2022-10-24T14:48:54.838Z,2.80
2022-10-24T14:51:41.479Z,5.13
2022-10-24T14:54:31.408Z,2.70
2022-10-24T14:57:18.932Z,3.43
2022-10-24T15:00:07.670Z,3.37
2022-10-24T15:02:55.291Z,4.63
2022-10-24T15:05:40.934Z,4.10
2022-10-24T15:08:28.432Z,4.60
2022-10-24T15:11:21.932Z,2.40
2022-10-24T15:14:27.893Z,6.13
2022-10-24T15:17:31.489Z,6.00
2022-10-24T15:20:23.756Z,6.33
2022-10-24T15:23:20.693Z,7.23
2022-10-24T15:26:11.347Z,2.50
2022-10-24T15:29:03.096Z,3.90
2022-10-24T15:31:50.166Z,3.63
2022-10-24T15:34:36.045Z,3.57
2022-10-24T15:37:23.488Z,8.57
2022-10-24T15:40:20.333Z,3.57
2022-10-24T15:43:06.048Z,4.23
2022-10-24T15:45:52.406Z,3.73
2022-10-24T15:48:39.394Z,5.70
2022-10-24T15:51:25.731Z,3.43
2022-10-24T15:54:15.539Z,8.10
2022-10-24T15:57:05.298Z,3.57
2022-10-24T15:59:51.367Z,6.57
2022-10-24T16:02:36.806Z,3.07
2022-10-24T16:05:23.898Z,4.30
2022-10-24T16:08:15.726Z,3.63
2022-10-24T16:11:04.938Z,2.70
2022-10-24T16:13:53.896Z,4.37
2022-10-24T16:16:39.759Z,4.37
2022-10-24T16:19:28.943Z,9.20
2022-10-24T16:22:16.437Z,7.40
2022-10-24T16:25:02.110Z,5.93
2022-10-24T16:27:50.966Z,6.03
2022-10-24T16:30:37.513Z,3.77
2022-10-24T16:33:23.707Z,4.40
2022-10-24T16:36:09.466Z,4.23
2022-10-24T16:38:56.531Z,3.40
2022-10-24T16:41:46.349Z,5.83
2022-10-24T16:44:36.193Z,5.00
2022-10-24T16:47:21.743Z,5.67
2022-10-24T16:50:08.315Z,6.60
2022-10-24T16:52:55.028Z,4.17
2022-10-24T16:55:41.046Z,4.80
2022-10-24T16:58:27.579Z,4.13
2022-10-24T17:01:15.108Z,10.50
2022-10-24T17:04:01.446Z,3.73
2022-10-24T17:06:47.090Z,7.33
2022-10-24T17:09:32.717Z,6.40
2022-10-24T17:12:18.505Z,4.50
2022-10-24T17:15:05.650Z,7.27
2022-10-24T17:17:51.167Z,7.00
2022-10-24T17:20:37.112Z,3.93
2022-10-24T17:23:23.976Z,3.90
2022-10-24T17:26:17.738Z,5.27
2022-10-24T17:29:03.747Z,7.67
2022-10-24T17:31:49.304Z,7.37
2022-10-24T17:34:35.311Z,7.07
2022-10-24T17:37:24.211Z,6.67
2022-10-24T17:40:14.948Z,8.00
2022-10-24T17:43:02.673Z,8.30
2022-10-24T17:45:49.255Z,4.97
2022-10-24T17:48:34.873Z,8.87
2022-10-24T17:51:22.619Z,5.47
2022-10-24T17:54:09.189Z,3.87
2022-10-24T17:56:55.689Z,4.13
2022-10-24T17:59:41.371Z,4.07
2022-10-24T18:02:28.549Z,4.40
2022-10-24T18:05:14.509Z,3.93
2022-10-24T18:08:00.497Z,3.63
2022-10-24T18:10:46.722Z,3.67
2022-10-24T18:13:35.629Z,4.53
2022-10-24T18:16:21.577Z,4.03
2022-10-24T18:19:08.238Z,6.40
2022-10-24T18:21:54.795Z,5.43
2022-10-24T18:24:40.649Z,3.87
2022-10-24T18:27:26.672Z,7.30
2022-10-24T18:30:12.920Z,5.63
2022-10-24T18:32:58.909Z,4.17
2022-10-24T18:35:44.767Z,8.10
2022-10-24T18:38:33.237Z,5.07
2022-10-24T18:41:31.718Z,6.83
2022-10-24T18:44:30.626Z,3.50
2022-10-24T18:47:18.789Z,3.67
2022-10-24T18:50:07.054Z,3.30
2022-10-24T18:52:55.747Z,4.70
2022-10-24T18:55:41.741Z,8.87
2022-10-24T18:58:27.945Z,5.40
2022-10-24T19:01:23.472Z,5.53
2022-10-24T19:04:13.708Z,6.77
2022-10-24T19:07:00.083Z,5.10
2022-10-24T19:09:47.303Z,3.57
2022-10-24T19:12:33.960Z,5.93
2022-10-24T19:15:20.535Z,3.83
2022-10-24T19:18:07.088Z,8.20
2022-10-24T19:20:52.920Z,3.83
2022-10-24T19:23:38.662Z,7.03
2022-10-24T19:26:27.412Z,4.73
2022-10-24T19:29:15.483Z,10.57
2022-10-24T19:32:01.844Z,5.93
2022-10-24T19:34:47.839Z,2.77
2022-10-24T19:37:33.934Z,4.30
2022-10-24T19:40:20.733Z,5.70
2022-10-24T19:43:06.628Z,6.17
2022-10-24T19:46:07.489Z,4.07
2022-10-24T19:49:00.698Z,7.17
2022-10-24T19:51:46.143Z,3.93
2022-10-24T19:54:32.717Z,3.30
2022-10-24T19:57:19.043Z,9.00
2022-10-24T20:00:05.088Z,6.60
2022-10-24T20:02:58.601Z,6.97
2022-10-24T20:05:44.189Z,3.63
2022-10-24T20:08:30.204Z,3.77
2022-10-24T20:11:16.375Z,9.67
2022-10-24T20:14:02.061Z,5.47
2022-10-24T20:16:47.810Z,5.23
2022-10-24T20:19:33.423Z,5.00
2022-10-24T20:22:18.881Z,3.30
2022-10-24T20:25:04.568Z,5.80
2022-10-24T20:27:50.365Z,4.53
2022-10-24T20:30:40.497Z,4.87
2022-10-24T20:33:26.459Z,5.70
2022-10-24T20:36:12.401Z,6.30
2022-10-24T20:39:01.205Z,4.27
2022-10-24T20:41:50.436Z,5.90
2022-10-24T20:44:39.533Z,9.73
2022-10-24T20:47:25.990Z,5.90
2022-10-24T20:50:11.572Z,5.47
2022-10-24T20:52:57.341Z,8.70
2022-10-24T20:55:44.998Z,7.30
2022-10-24T20:58:30.919Z,6.03
2022-10-24T21:01:24.987Z,9.37
2022-10-24T21:04:10.707Z,8.37
2022-10-24T21:06:56.483Z,7.13
2022-10-24T21:09:43.115Z,6.77
2022-10-24T21:12:28.966Z,5.67
2022-10-24T21:15:14.882Z,7.93
2022-10-24T21:18:00.812Z,8.67
2022-10-24T21:20:46.619Z,7.93
2022-10-24T21:23:32.532Z,8.00
2022-10-24T21:26:17.994Z,10.07
2022-10-24T21:29:09.268Z,7.70
2022-10-24T21:32:09.849Z,6.10
2022-10-24T21:34:55.771Z,5.60
2022-10-24T21:37:41.588Z,6.97
2022-10-24T21:40:27.517Z,4.70
2022-10-24T21:43:13.259Z,5.53
2022-10-24T21:46:03.951Z,4.53
2022-10-24T21:48:50.576Z,5.17
2022-10-24T21:51:39.088Z,9.23
2022-10-24T21:54:25.736Z,4.50
2022-10-24T21:57:11.347Z,4.07
2022-10-24T21:59:57.085Z,5.33
2022-10-24T22:02:43.143Z,5.47
2022-10-24T22:05:28.880Z,4.07
2022-10-24T22:08:14.776Z,6.23
2022-10-24T22:11:01.911Z,4.00
2022-10-24T22:13:48.576Z,7.47
2022-10-24T22:16:34.504Z,3.43
2022-10-24T22:19:20.307Z,4.40
2022-10-24T22:22:06.170Z,6.43
2022-10-24T22:24:52.002Z,5.10
2022-10-24T22:27:38.211Z,3.13
2022-10-24T22:30:23.720Z,4.30
2022-10-24T22:33:16.766Z,5.90
2022-10-24T22:36:08.816Z,5.70
2022-10-24T22:38:56.230Z,5.70
2022-10-24T22:41:42.442Z,5.67
2022-10-24T22:44:28.152Z,8.70
2022-10-24T22:47:17.098Z,5.80
2022-10-24T22:50:10.397Z,2.97
2022-10-24T22:52:56.171Z,3.90
2022-10-24T22:55:59.360Z,3.70
2022-10-24T22:58:45.642Z,3.13
2022-10-24T23:01:50.335Z,3.40
2022-10-24T23:04:40.275Z,3.53
2022-10-24T23:07:29.180Z,3.83
2022-10-24T23:10:18.025Z,3.10
2022-10-24T23:13:03.992Z,6.27
2022-10-24T23:15:49.849Z,4.50
2022-10-24T23:18:35.890Z,2.60
2022-10-24T23:21:32.421Z,3.20
2022-10-24T23:24:19.196Z,3.53
2022-10-24T23:27:25.434Z,6.07
2022-10-24T23:30:18.936Z,5.37
2022-10-24T23:33:04.757Z,6.23
2022-10-24T23:35:53.950Z,5.30
2022-10-24T23:38:40.362Z,2.70
2022-10-24T23:41:26.308Z,3.13
2022-10-24T23:44:12.688Z,2.80
2022-10-24T23:47:13.858Z,3.27
2022-10-24T23:50:06.627Z,4.33
2022-10-24T23:52:52.482Z,2.67
2022-10-24T23:55:40.583Z,5.93
2022-10-24T23:58:27.849Z,4.90
